sensor_id;sensor_type;location;lat;lon;timestamp;P1;durP1;ratioP1;P2;durP2;ratioP2
25213;SDS011;13160;51.834;4.706;2023-03-01T00:01:46;29.92;;;15.95;;
25213;SDS011;13160;51.834;4.706;2023-03-01T00:04:14;25.25;;;16.00;;
25213;SDS011;13160;51.834;4.706;2023-03-01T00:06:46;26.75;;;16.10;;
25213;SDS011;13160;51.834;4.706;2023-03-01T00:09:18;27.35;;;16.27;;
25213;SDS011;13160;51.834;4.706;2023-03-01T00:11:46;28.63;;;17.38;;
25213;SDS011;13160;51.834;4.706;2023-03-01T00:14:14;26.17;;;16.67;;
25213;SDS011;13160;51.834;4.706;2023-03-01T00:16:45;27.25;;;16.95;;
25213;SDS011;13160;51.834;4.706;2023-03-01T00:19:14;28.27;;;16.42;;
25213;SDS011;13160;51.834;4.706;2023-03-01T00:21:45;25.02;;;16.38;;
25213;SDS011;13160;51.834;4.706;2023-03-01T00:24:17;25.65;;;16.98;;
25213;SDS011;13160;51.834;4.706;2023-03-01T00:26:46;25.58;;;15.20;;
25213;SDS011;13160;51.834;4.706;2023-03-01T00:29:14;27.25;;;15.90;;
25213;SDS011;13160;51.834;4.706;2023-03-01T00:31:44;24.92;;;16.38;;
25213;SDS011;13160;51.834;4.706;2023-03-01T00:34:13;23.38;;;16.27;;
25213;SDS011;13160;51.834;4.706;2023-03-01T00:36:44;26.25;;;16.50;;
25213;SDS011;13160;51.834;4.706;2023-03-01T00:39:14;23.90;;;14.98;;
25213;SDS011;13160;51.834;4.706;2023-03-01T00:41:45;27.20;;;16.77;;
25213;SDS011;13160;51.834;4.706;2023-03-01T00:44:13;25.92;;;14.63;;
25213;SDS011;13160;51.834;4.706;2023-03-01T00:46:41;26.27;;;17.10;;
25213;SDS011;13160;51.834;4.706;2023-03-01T00:49:10;30.52;;;17.50;;
25213;SDS011;13160;51.834;4.706;2023-03-01T00:51:38;31.08;;;16.13;;
25213;SDS011;13160;51.834;4.706;2023-03-01T00:54:09;26.15;;;16.63;;
25213;SDS011;13160;51.834;4.706;2023-03-01T00:56:37;22.85;;;15.32;;
25213;SDS011;13160;51.834;4.706;2023-03-01T00:59:05;24.20;;;15.90;;
25213;SDS011;13160;51.834;4.706;2023-03-01T01:01:33;27.98;;;16.42;;
25213;SDS011;13160;51.834;4.706;2023-03-01T01:04:03;29.10;;;17.77;;
25213;SDS011;13160;51.834;4.706;2023-03-01T01:06:35;25.98;;;16.60;;
25213;SDS011;13160;51.834;4.706;2023-03-01T01:09:10;26.75;;;17.45;;
25213;SDS011;13160;51.834;4.706;2023-03-01T01:11:43;28.30;;;17.40;;
25213;SDS011;13160;51.834;4.706;2023-03-01T01:14:12;25.45;;;16.80;;
25213;SDS011;13160;51.834;4.706;2023-03-01T01:16:42;31.80;;;18.30;;
25213;SDS011;13160;51.834;4.706;2023-03-01T01:19:11;27.05;;;16.83;;
25213;SDS011;13160;51.834;4.706;2023-03-01T01:21:40;22.92;;;14.77;;
25213;SDS011;13160;51.834;4.706;2023-03-01T01:24:12;22.13;;;14.70;;
25213;SDS011;13160;51.834;4.706;2023-03-01T01:26:41;28.55;;;17.95;;
25213;SDS011;13160;51.834;4.706;2023-03-01T01:29:10;27.30;;;16.90;;
25213;SDS011;13160;51.834;4.706;2023-03-01T01:31:40;29.65;;;17.50;;
25213;SDS011;13160;51.834;4.706;2023-03-01T01:34:13;30.75;;;18.55;;
25213;SDS011;13160;51.834;4.706;2023-03-01T01:36:44;30.40;;;18.65;;
25213;SDS011;13160;51.834;4.706;2023-03-01T01:39:17;35.28;;;18.83;;
25213;SDS011;13160;51.834;4.706;2023-03-01T01:41:46;29.17;;;17.52;;
25213;SDS011;13160;51.834;4.706;2023-03-01T01:44:16;32.53;;;18.63;;
25213;SDS011;13160;51.834;4.706;2023-03-01T01:46:47;33.03;;;19.30;;
25213;SDS011;13160;51.834;4.706;2023-03-01T01:49:25;31.30;;;17.88;;
25213;SDS011;13160;51.834;4.706;2023-03-01T01:52:05;33.15;;;18.25;;
25213;SDS011;13160;51.834;4.706;2023-03-01T01:54:42;30.40;;;18.92;;
25213;SDS011;13160;51.834;4.706;2023-03-01T01:57:16;29.02;;;18.00;;
25213;SDS011;13160;51.834;4.706;2023-03-01T01:59:50;28.42;;;18.08;;
25213;SDS011;13160;51.834;4.706;2023-03-01T02:02:21;33.97;;;18.95;;
25213;SDS011;13160;51.834;4.706;2023-03-01T02:04:51;32.30;;;18.42;;
25213;SDS011;13160;51.834;4.706;2023-03-01T02:07:30;35.92;;;19.00;;
25213;SDS011;13160;51.834;4.706;2023-03-01T02:09:59;29.58;;;18.52;;
25213;SDS011;13160;51.834;4.706;2023-03-01T02:12:29;33.22;;;19.30;;
25213;SDS011;13160;51.834;4.706;2023-03-01T02:14:58;32.25;;;18.42;;
25213;SDS011;13160;51.834;4.706;2023-03-01T02:17:27;35.20;;;20.73;;
25213;SDS011;13160;51.834;4.706;2023-03-01T02:19:59;33.70;;;20.35;;
25213;SDS011;13160;51.834;4.706;2023-03-01T02:22:38;31.63;;;19.23;;
25213;SDS011;13160;51.834;4.706;2023-03-01T02:25:11;32.35;;;19.98;;
25213;SDS011;13160;51.834;4.706;2023-03-01T02:27:53;34.35;;;21.00;;
25213;SDS011;13160;51.834;4.706;2023-03-01T02:30:31;35.83;;;20.83;;
25213;SDS011;13160;51.834;4.706;2023-03-01T02:33:00;30.25;;;19.10;;
25213;SDS011;13160;51.834;4.706;2023-03-01T02:35:31;38.22;;;21.83;;
25213;SDS011;13160;51.834;4.706;2023-03-01T02:38:06;34.70;;;20.42;;
25213;SDS011;13160;51.834;4.706;2023-03-01T02:40:36;36.78;;;21.13;;
25213;SDS011;13160;51.834;4.706;2023-03-01T02:43:08;40.72;;;20.92;;
25213;SDS011;13160;51.834;4.706;2023-03-01T02:45:42;35.65;;;21.45;;
25213;SDS011;13160;51.834;4.706;2023-03-01T02:48:16;33.83;;;20.20;;
25213;SDS011;13160;51.834;4.706;2023-03-01T02:50:50;36.63;;;21.85;;
25213;SDS011;13160;51.834;4.706;2023-03-01T02:53:34;34.65;;;20.50;;
25213;SDS011;13160;51.834;4.706;2023-03-01T02:56:07;37.22;;;20.38;;
25213;SDS011;13160;51.834;4.706;2023-03-01T02:58:39;31.60;;;19.15;;
25213;SDS011;13160;51.834;4.706;2023-03-01T03:01:16;32.80;;;20.13;;
25213;SDS011;13160;51.834;4.706;2023-03-01T03:03:45;35.10;;;20.08;;
25213;SDS011;13160;51.834;4.706;2023-03-01T03:06:13;35.95;;;20.70;;
25213;SDS011;13160;51.834;4.706;2023-03-01T03:08:42;34.20;;;20.10;;
25213;SDS011;13160;51.834;4.706;2023-03-01T03:11:11;34.88;;;18.77;;
25213;SDS011;13160;51.834;4.706;2023-03-01T03:13:40;33.67;;;19.48;;
25213;SDS011;13160;51.834;4.706;2023-03-01T03:16:15;31.20;;;18.45;;
25213;SDS011;13160;51.834;4.706;2023-03-01T03:18:44;31.67;;;19.48;;
25213;SDS011;13160;51.834;4.706;2023-03-01T03:21:12;33.42;;;19.63;;
25213;SDS011;13160;51.834;4.706;2023-03-01T03:23:43;31.83;;;18.92;;
25213;SDS011;13160;51.834;4.706;2023-03-01T03:26:11;33.75;;;20.38;;
25213;SDS011;13160;51.834;4.706;2023-03-01T03:28:44;33.20;;;18.55;;
25213;SDS011;13160;51.834;4.706;2023-03-01T03:31:13;32.97;;;20.38;;
25213;SDS011;13160;51.834;4.706;2023-03-01T03:33:45;32.58;;;19.20;;
25213;SDS011;13160;51.834;4.706;2023-03-01T03:36:17;28.08;;;18.52;;
25213;SDS011;13160;51.834;4.706;2023-03-01T03:38:49;37.85;;;20.63;;
25213;SDS011;13160;51.834;4.706;2023-03-01T03:41:17;31.50;;;18.67;;
25213;SDS011;13160;51.834;4.706;2023-03-01T03:43:46;29.42;;;17.92;;
25213;SDS011;13160;51.834;4.706;2023-03-01T03:46:18;34.58;;;19.33;;
25213;SDS011;13160;51.834;4.706;2023-03-01T03:48:48;34.97;;;20.92;;
25213;SDS011;13160;51.834;4.706;2023-03-01T03:51:17;43.45;;;22.60;;
25213;SDS011;13160;51.834;4.706;2023-03-01T03:53:49;35.58;;;21.42;;
25213;SDS011;13160;51.834;4.706;2023-03-01T03:56:17;37.70;;;21.85;;
25213;SDS011;13160;51.834;4.706;2023-03-01T03:58:46;31.10;;;18.38;;
25213;SDS011;13160;51.834;4.706;2023-03-01T04:01:14;35.60;;;20.48;;
25213;SDS011;13160;51.834;4.706;2023-03-01T04:03:47;34.95;;;20.58;;
25213;SDS011;13160;51.834;4.706;2023-03-01T04:06:20;34.03;;;18.85;;
25213;SDS011;13160;51.834;4.706;2023-03-01T04:08:49;33.40;;;20.35;;
25213;SDS011;13160;51.834;4.706;2023-03-01T04:11:26;34.90;;;21.10;;
25213;SDS011;13160;51.834;4.706;2023-03-01T04:13:55;33.28;;;19.98;;
25213;SDS011;13160;51.834;4.706;2023-03-01T04:16:26;32.35;;;19.08;;
25213;SDS011;13160;51.834;4.706;2023-03-01T04:18:56;37.58;;;21.38;;
25213;SDS011;13160;51.834;4.706;2023-03-01T04:21:25;35.55;;;20.30;;
25213;SDS011;13160;51.834;4.706;2023-03-01T04:23:54;31.38;;;18.35;;
25213;SDS011;13160;51.834;4.706;2023-03-01T04:26:22;33.45;;;20.10;;
25213;SDS011;13160;51.834;4.706;2023-03-01T04:28:51;39.28;;;20.08;;
25213;SDS011;13160;51.834;4.706;2023-03-01T04:31:20;42.13;;;21.95;;
25213;SDS011;13160;51.834;4.706;2023-03-01T04:33:50;36.95;;;21.50;;
25213;SDS011;13160;51.834;4.706;2023-03-01T04:36:21;33.03;;;19.05;;
25213;SDS011;13160;51.834;4.706;2023-03-01T04:38:53;39.42;;;22.17;;
25213;SDS011;13160;51.834;4.706;2023-03-01T04:41:22;36.17;;;20.00;;
25213;SDS011;13160;51.834;4.706;2023-03-01T04:43:52;34.28;;;20.80;;
25213;SDS011;13160;51.834;4.706;2023-03-01T04:46:20;36.15;;;19.80;;
25213;SDS011;13160;51.834;4.706;2023-03-01T04:48:49;34.33;;;19.70;;
25213;SDS011;13160;51.834;4.706;2023-03-01T04:51:17;35.80;;;20.55;;
25213;SDS011;13160;51.834;4.706;2023-03-01T04:53:47;32.25;;;18.77;;
25213;SDS011;13160;51.834;4.706;2023-03-01T04:56:15;31.83;;;19.13;;
25213;SDS011;13160;51.834;4.706;2023-03-01T04:58:45;36.50;;;20.42;;
25213;SDS011;13160;51.834;4.706;2023-03-01T05:01:14;32.72;;;19.25;;
25213;SDS011;13160;51.834;4.706;2023-03-01T05:03:46;32.22;;;19.33;;
25213;SDS011;13160;51.834;4.706;2023-03-01T05:06:16;31.08;;;18.55;;
25213;SDS011;13160;51.834;4.706;2023-03-01T05:08:48;32.83;;;20.13;;
25213;SDS011;13160;51.834;4.706;2023-03-01T05:11:18;31.48;;;18.30;;
25213;SDS011;13160;51.834;4.706;2023-03-01T05:13:47;35.35;;;19.83;;
25213;SDS011;13160;51.834;4.706;2023-03-01T05:16:21;35.55;;;19.92;;
25213;SDS011;13160;51.834;4.706;2023-03-01T05:18:49;38.60;;;20.75;;
25213;SDS011;13160;51.834;4.706;2023-03-01T05:21:17;34.08;;;19.27;;
25213;SDS011;13160;51.834;4.706;2023-03-01T05:23:47;34.80;;;20.73;;
25213;SDS011;13160;51.834;4.706;2023-03-01T05:26:17;31.83;;;18.50;;
25213;SDS011;13160;51.834;4.706;2023-03-01T05:29:04;35.67;;;20.10;;
25213;SDS011;13160;51.834;4.706;2023-03-01T05:31:36;33.88;;;20.35;;
25213;SDS011;13160;51.834;4.706;2023-03-01T05:34:04;36.47;;;20.13;;
25213;SDS011;13160;51.834;4.706;2023-03-01T05:36:33;38.55;;;20.73;;
25213;SDS011;13160;51.834;4.706;2023-03-01T05:39:03;34.22;;;20.48;;
25213;SDS011;13160;51.834;4.706;2023-03-01T05:41:32;36.05;;;20.60;;
25213;SDS011;13160;51.834;4.706;2023-03-01T05:44:00;32.70;;;18.65;;
25213;SDS011;13160;51.834;4.706;2023-03-01T05:46:31;38.60;;;19.73;;
25213;SDS011;13160;51.834;4.706;2023-03-01T05:48:59;35.28;;;20.25;;
25213;SDS011;13160;51.834;4.706;2023-03-01T05:51:31;34.15;;;20.33;;
25213;SDS011;13160;51.834;4.706;2023-03-01T05:54:00;33.05;;;19.90;;
25213;SDS011;13160;51.834;4.706;2023-03-01T05:56:30;33.33;;;20.27;;
25213;SDS011;13160;51.834;4.706;2023-03-01T05:59:01;31.50;;;19.25;;
25213;SDS011;13160;51.834;4.706;2023-03-01T06:01:31;32.50;;;18.40;;
25213;SDS011;13160;51.834;4.706;2023-03-01T06:04:00;32.97;;;19.70;;
25213;SDS011;13160;51.834;4.706;2023-03-01T06:06:29;34.15;;;19.77;;
25213;SDS011;13160;51.834;4.706;2023-03-01T06:09:01;35.20;;;19.33;;
25213;SDS011;13160;51.834;4.706;2023-03-01T06:11:32;36.35;;;20.45;;
25213;SDS011;13160;51.834;4.706;2023-03-01T06:14:01;37.60;;;19.38;;
25213;SDS011;13160;51.834;4.706;2023-03-01T06:16:30;37.35;;;20.02;;
25213;SDS011;13160;51.834;4.706;2023-03-01T06:18:58;40.90;;;20.60;;
25213;SDS011;13160;51.834;4.706;2023-03-01T06:21:30;38.33;;;20.85;;
25213;SDS011;13160;51.834;4.706;2023-03-01T06:23:58;36.92;;;20.38;;
25213;SDS011;13160;51.834;4.706;2023-03-01T06:26:26;32.28;;;19.15;;
25213;SDS011;13160;51.834;4.706;2023-03-01T06:28:57;37.85;;;20.17;;
25213;SDS011;13160;51.834;4.706;2023-03-01T06:31:25;33.75;;;19.73;;
25213;SDS011;13160;51.834;4.706;2023-03-01T06:33:54;39.85;;;20.35;;
25213;SDS011;13160;51.834;4.706;2023-03-01T06:36:22;37.78;;;21.75;;
25213;SDS011;13160;51.834;4.706;2023-03-01T06:38:50;33.50;;;20.23;;
25213;SDS011;13160;51.834;4.706;2023-03-01T06:41:18;35.20;;;19.67;;
25213;SDS011;13160;51.834;4.706;2023-03-01T06:43:47;38.50;;;21.30;;
25213;SDS011;13160;51.834;4.706;2023-03-01T06:46:17;37.60;;;19.58;;
25213;SDS011;13160;51.834;4.706;2023-03-01T06:48:46;33.13;;;19.02;;
25213;SDS011;13160;51.834;4.706;2023-03-01T06:51:14;36.83;;;21.42;;
25213;SDS011;13160;51.834;4.706;2023-03-01T06:53:45;37.90;;;20.40;;
25213;SDS011;13160;51.834;4.706;2023-03-01T06:56:14;31.08;;;19.45;;
25213;SDS011;13160;51.834;4.706;2023-03-01T06:58:42;35.33;;;20.65;;
25213;SDS011;13160;51.834;4.706;2023-03-01T07:01:11;36.97;;;19.55;;
25213;SDS011;13160;51.834;4.706;2023-03-01T07:03:40;36.08;;;20.20;;
25213;SDS011;13160;51.834;4.706;2023-03-01T07:06:12;32.67;;;20.00;;
25213;SDS011;13160;51.834;4.706;2023-03-01T07:08:40;35.00;;;20.35;;
25213;SDS011;13160;51.834;4.706;2023-03-01T07:11:09;36.38;;;20.17;;
25213;SDS011;13160;51.834;4.706;2023-03-01T07:13:37;32.75;;;19.83;;
25213;SDS011;13160;51.834;4.706;2023-03-01T07:16:05;42.67;;;23.13;;
25213;SDS011;13160;51.834;4.706;2023-03-01T07:18:35;44.20;;;22.38;;
25213;SDS011;13160;51.834;4.706;2023-03-01T07:21:05;37.13;;;22.45;;
25213;SDS011;13160;51.834;4.706;2023-03-01T07:23:35;40.58;;;22.83;;
25213;SDS011;13160;51.834;4.706;2023-03-01T07:26:03;44.30;;;23.25;;
25213;SDS011;13160;51.834;4.706;2023-03-01T07:28:32;42.50;;;22.90;;
25213;SDS011;13160;51.834;4.706;2023-03-01T07:31:02;42.88;;;23.77;;
25213;SDS011;13160;51.834;4.706;2023-03-01T07:33:32;47.28;;;27.23;;
25213;SDS011;13160;51.834;4.706;2023-03-01T07:36:01;50.35;;;27.30;;
25213;SDS011;13160;51.834;4.706;2023-03-01T07:38:33;43.15;;;24.98;;
25213;SDS011;13160;51.834;4.706;2023-03-01T07:41:03;48.80;;;27.45;;
25213;SDS011;13160;51.834;4.706;2023-03-01T07:43:31;46.53;;;26.95;;
25213;SDS011;13160;51.834;4.706;2023-03-01T07:46:01;50.30;;;27.65;;
25213;SDS011;13160;51.834;4.706;2023-03-01T07:48:30;51.10;;;27.05;;
25213;SDS011;13160;51.834;4.706;2023-03-01T07:51:00;46.33;;;24.90;;
25213;SDS011;13160;51.834;4.706;2023-03-01T07:53:31;50.58;;;27.15;;
25213;SDS011;13160;51.834;4.706;2023-03-01T07:56:01;48.55;;;24.80;;
25213;SDS011;13160;51.834;4.706;2023-03-01T07:58:34;42.17;;;24.73;;
25213;SDS011;13160;51.834;4.706;2023-03-01T08:01:03;47.08;;;26.45;;
25213;SDS011;13160;51.834;4.706;2023-03-01T08:03:32;43.72;;;23.23;;
25213;SDS011;13160;51.834;4.706;2023-03-01T08:06:02;45.50;;;23.25;;
25213;SDS011;13160;51.834;4.706;2023-03-01T08:08:34;45.53;;;24.70;;
25213;SDS011;13160;51.834;4.706;2023-03-01T08:11:05;48.53;;;25.60;;
25213;SDS011;13160;51.834;4.706;2023-03-01T08:13:36;48.70;;;24.30;;
25213;SDS011;13160;51.834;4.706;2023-03-01T08:16:06;42.25;;;24.75;;
25213;SDS011;13160;51.834;4.706;2023-03-01T08:18:37;39.70;;;22.48;;
25213;SDS011;13160;51.834;4.706;2023-03-01T08:21:06;47.13;;;24.33;;
25213;SDS011;13160;51.834;4.706;2023-03-01T08:23:39;47.90;;;23.67;;
25213;SDS011;13160;51.834;4.706;2023-03-01T08:26:09;43.47;;;23.10;;
25213;SDS011;13160;51.834;4.706;2023-03-01T08:28:39;40.80;;;22.17;;
25213;SDS011;13160;51.834;4.706;2023-03-01T08:31:19;39.15;;;21.23;;
25213;SDS011;13160;51.834;4.706;2023-03-01T08:33:50;43.08;;;21.90;;
25213;SDS011;13160;51.834;4.706;2023-03-01T08:36:22;39.20;;;21.50;;
25213;SDS011;13160;51.834;4.706;2023-03-01T08:38:52;39.00;;;20.23;;
25213;SDS011;13160;51.834;4.706;2023-03-01T08:41:22;31.52;;;17.13;;
25213;SDS011;13160;51.834;4.706;2023-03-01T08:43:51;31.75;;;17.00;;
25213;SDS011;13160;51.834;4.706;2023-03-01T08:46:25;27.75;;;16.17;;
25213;SDS011;13160;51.834;4.706;2023-03-01T08:48:55;32.47;;;16.52;;
25213;SDS011;13160;51.834;4.706;2023-03-01T08:51:23;29.45;;;16.05;;
25213;SDS011;13160;51.834;4.706;2023-03-01T08:53:54;28.20;;;15.15;;
25213;SDS011;13160;51.834;4.706;2023-03-01T08:56:22;24.75;;;14.88;;
25213;SDS011;13160;51.834;4.706;2023-03-01T08:58:51;24.17;;;14.45;;
25213;SDS011;13160;51.834;4.706;2023-03-01T09:01:19;20.83;;;13.60;;
25213;SDS011;13160;51.834;4.706;2023-03-01T09:03:47;24.52;;;12.88;;
25213;SDS011;13160;51.834;4.706;2023-03-01T09:06:16;20.80;;;12.73;;
25213;SDS011;13160;51.834;4.706;2023-03-01T09:08:45;19.77;;;11.50;;
25213;SDS011;13160;51.834;4.706;2023-03-01T09:11:20;18.90;;;11.80;;
25213;SDS011;13160;51.834;4.706;2023-03-01T09:13:49;20.88;;;11.35;;
25213;SDS011;13160;51.834;4.706;2023-03-01T09:16:19;19.48;;;10.82;;
25213;SDS011;13160;51.834;4.706;2023-03-01T09:18:50;21.27;;;11.77;;
25213;SDS011;13160;51.834;4.706;2023-03-01T09:21:21;15.82;;;10.90;;
25213;SDS011;13160;51.834;4.706;2023-03-01T09:24:05;18.15;;;10.27;;
25213;SDS011;13160;51.834;4.706;2023-03-01T09:26:36;17.65;;;10.70;;
25213;SDS011;13160;51.834;4.706;2023-03-01T09:29:04;19.60;;;9.43;;
25213;SDS011;13160;51.834;4.706;2023-03-01T09:31:33;13.20;;;8.75;;
25213;SDS011;13160;51.834;4.706;2023-03-01T09:34:01;14.98;;;8.48;;
25213;SDS011;13160;51.834;4.706;2023-03-01T09:36:32;15.60;;;8.90;;
25213;SDS011;13160;51.834;4.706;2023-03-01T09:39:01;12.80;;;8.98;;
25213;SDS011;13160;51.834;4.706;2023-03-01T09:41:38;18.00;;;9.23;;
25213;SDS011;13160;51.834;4.706;2023-03-01T09:47:05;12.23;;;8.20;;
25213;SDS011;13160;51.834;4.706;2023-03-01T09:49:39;11.95;;;8.10;;
25213;SDS011;13160;51.834;4.706;2023-03-01T09:52:19;13.68;;;8.05;;
25213;SDS011;13160;51.834;4.706;2023-03-01T09:54:54;14.02;;;8.57;;
25213;SDS011;13160;51.834;4.706;2023-03-01T09:57:28;13.63;;;8.25;;
25213;SDS011;13160;51.834;4.706;2023-03-01T10:00:09;13.85;;;7.68;;
25213;SDS011;13160;51.834;4.706;2023-03-01T10:02:59;12.38;;;7.63;;
25213;SDS011;13160;51.834;4.706;2023-03-01T10:05:40;13.57;;;7.85;;
25213;SDS011;13160;51.834;4.706;2023-03-01T10:08:25;15.98;;;8.77;;
25213;SDS011;13160;51.834;4.706;2023-03-01T10:11:04;14.27;;;8.23;;
25213;SDS011;13160;51.834;4.706;2023-03-01T10:13:50;15.45;;;8.05;;
25213;SDS011;13160;51.834;4.706;2023-03-01T10:16:27;11.20;;;6.97;;
25213;SDS011;13160;51.834;4.706;2023-03-01T10:19:08;10.95;;;6.25;;
25213;SDS011;13160;51.834;4.706;2023-03-01T10:21:43;10.05;;;6.45;;
25213;SDS011;13160;51.834;4.706;2023-03-01T10:24:15;10.85;;;6.30;;
25213;SDS011;13160;51.834;4.706;2023-03-01T10:26:54;11.63;;;6.75;;
25213;SDS011;13160;51.834;4.706;2023-03-01T10:29:29;10.57;;;6.40;;
25213;SDS011;13160;51.834;4.706;2023-03-01T10:32:02;11.55;;;6.07;;
25213;SDS011;13160;51.834;4.706;2023-03-01T10:34:34;9.00;;;5.13;;
25213;SDS011;13160;51.834;4.706;2023-03-01T10:37:10;9.80;;;5.50;;
25213;SDS011;13160;51.834;4.706;2023-03-01T10:39:57;8.90;;;4.93;;
25213;SDS011;13160;51.834;4.706;2023-03-01T10:42:33;8.80;;;5.72;;
25213;SDS011;13160;51.834;4.706;2023-03-01T10:45:22;9.35;;;5.30;;
25213;SDS011;13160;51.834;4.706;2023-03-01T10:48:04;9.73;;;5.75;;
25213;SDS011;13160;51.834;4.706;2023-03-01T10:50:39;8.50;;;5.28;;
25213;SDS011;13160;51.834;4.706;2023-03-01T10:53:18;8.05;;;5.05;;
25213;SDS011;13160;51.834;4.706;2023-03-01T10:55:56;8.48;;;4.50;;
25213;SDS011;13160;51.834;4.706;2023-03-01T10:58:31;9.55;;;4.85;;
25213;SDS011;13160;51.834;4.706;2023-03-01T11:01:04;8.55;;;4.72;;
25213;SDS011;13160;51.834;4.706;2023-03-01T11:04:07;8.32;;;4.88;;
25213;SDS011;13160;51.834;4.706;2023-03-01T11:06:40;11.70;;;7.60;;
25213;SDS011;13160;51.834;4.706;2023-03-01T11:09:19;8.70;;;4.72;;
25213;SDS011;13160;51.834;4.706;2023-03-01T11:11:51;9.27;;;5.38;;
25213;SDS011;13160;51.834;4.706;2023-03-01T11:14:22;8.73;;;4.70;;
25213;SDS011;13160;51.834;4.706;2023-03-01T11:17:12;8.77;;;4.72;;
25213;SDS011;13160;51.834;4.706;2023-03-01T11:19:49;7.72;;;4.97;;
25213;SDS011;13160;51.834;4.706;2023-03-01T11:22:30;8.35;;;4.63;;
25213;SDS011;13160;51.834;4.706;2023-03-01T11:25:00;7.80;;;4.75;;
25213;SDS011;13160;51.834;4.706;2023-03-01T11:27:36;9.60;;;4.80;;
25213;SDS011;13160;51.834;4.706;2023-03-01T11:30:13;8.07;;;4.78;;
25213;SDS011;13160;51.834;4.706;2023-03-01T11:32:50;7.80;;;5.15;;
25213;SDS011;13160;51.834;4.706;2023-03-01T11:35:44;10.15;;;4.55;;
25213;SDS011;13160;51.834;4.706;2023-03-01T11:38:20;8.20;;;4.45;;
25213;SDS011;13160;51.834;4.706;2023-03-01T11:40:52;7.97;;;4.68;;
25213;SDS011;13160;51.834;4.706;2023-03-01T11:43:32;9.02;;;4.43;;
25213;SDS011;13160;51.834;4.706;2023-03-01T11:46:16;7.70;;;4.32;;
25213;SDS011;13160;51.834;4.706;2023-03-01T11:49:18;7.28;;;4.65;;
25213;SDS011;13160;51.834;4.706;2023-03-01T11:52:18;8.75;;;4.68;;
25213;SDS011;13160;51.834;4.706;2023-03-01T11:55:08;9.27;;;4.80;;
25213;SDS011;13160;51.834;4.706;2023-03-01T11:57:55;10.18;;;4.88;;
25213;SDS011;13160;51.834;4.706;2023-03-01T12:00:51;6.80;;;4.28;;
25213;SDS011;13160;51.834;4.706;2023-03-01T12:03:55;9.35;;;4.65;;
25213;SDS011;13160;51.834;4.706;2023-03-01T12:07:22;9.80;;;4.80;;
25213;SDS011;13160;51.834;4.706;2023-03-01T12:12:58;9.27;;;5.13;;
25213;SDS011;13160;51.834;4.706;2023-03-01T12:19:08;9.13;;;4.63;;
25213;SDS011;13160;51.834;4.706;2023-03-01T12:22:13;9.63;;;5.20;;
25213;SDS011;13160;51.834;4.706;2023-03-01T12:27:52;7.25;;;4.60;;
25213;SDS011;13160;51.834;4.706;2023-03-01T12:31:21;8.20;;;5.32;;
25213;SDS011;13160;51.834;4.706;2023-03-01T12:34:16;10.88;;;5.30;;
25213;SDS011;13160;51.834;4.706;2023-03-01T12:40:12;8.00;;;5.05;;
25213;SDS011;13160;51.834;4.706;2023-03-01T12:42:57;10.20;;;5.50;;
25213;SDS011;13160;51.834;4.706;2023-03-01T12:45:50;7.75;;;5.32;;
25213;SDS011;13160;51.834;4.706;2023-03-01T12:48:42;7.97;;;5.15;;
25213;SDS011;13160;51.834;4.706;2023-03-01T12:51:22;12.85;;;5.50;;
25213;SDS011;13160;51.834;4.706;2023-03-01T12:53:56;8.13;;;5.47;;
25213;SDS011;13160;51.834;4.706;2023-03-01T12:56:28;10.02;;;5.38;;
25213;SDS011;13160;51.834;4.706;2023-03-01T12:59:02;10.20;;;5.45;;
25213;SDS011;13160;51.834;4.706;2023-03-01T13:01:43;7.97;;;5.20;;
25213;SDS011;13160;51.834;4.706;2023-03-01T13:04:27;9.23;;;5.63;;
25213;SDS011;13160;51.834;4.706;2023-03-01T13:07:10;9.32;;;5.78;;
25213;SDS011;13160;51.834;4.706;2023-03-01T13:09:55;9.02;;;5.50;;
25213;SDS011;13160;51.834;4.706;2023-03-01T13:12:43;8.77;;;5.07;;
25213;SDS011;13160;51.834;4.706;2023-03-01T13:15:24;10.02;;;5.78;;
25213;SDS011;13160;51.834;4.706;2023-03-01T13:17:55;8.88;;;5.55;;
25213;SDS011;13160;51.834;4.706;2023-03-01T13:20:26;8.85;;;5.53;;
25213;SDS011;13160;51.834;4.706;2023-03-01T13:23:00;8.10;;;4.95;;
25213;SDS011;13160;51.834;4.706;2023-03-01T13:25:35;8.52;;;5.10;;
25213;SDS011;13160;51.834;4.706;2023-03-01T13:28:48;9.48;;;4.20;;
25213;SDS011;13160;51.834;4.706;2023-03-01T13:34:39;8.23;;;4.50;;
25213;SDS011;13160;51.834;4.706;2023-03-01T13:37:18;8.02;;;4.60;;
25213;SDS011;13160;51.834;4.706;2023-03-01T13:40:00;7.43;;;4.38;;
25213;SDS011;13160;51.834;4.706;2023-03-01T13:42:35;10.18;;;4.53;;
25213;SDS011;13160;51.834;4.706;2023-03-01T13:45:16;7.15;;;4.30;;
25213;SDS011;13160;51.834;4.706;2023-03-01T13:47:50;8.75;;;4.57;;
25213;SDS011;13160;51.834;4.706;2023-03-01T13:50:25;10.63;;;4.55;;
25213;SDS011;13160;51.834;4.706;2023-03-01T13:53:02;8.95;;;4.95;;
25213;SDS011;13160;51.834;4.706;2023-03-01T13:55:36;8.70;;;4.47;;
25213;SDS011;13160;51.834;4.706;2023-03-01T13:58:18;6.90;;;4.47;;
25213;SDS011;13160;51.834;4.706;2023-03-01T14:00:55;8.00;;;4.80;;
25213;SDS011;13160;51.834;4.706;2023-03-01T14:03:26;6.75;;;4.40;;
25213;SDS011;13160;51.834;4.706;2023-03-01T14:06:03;7.50;;;4.50;;
25213;SDS011;13160;51.834;4.706;2023-03-01T14:08:41;6.90;;;4.53;;
25213;SDS011;13160;51.834;4.706;2023-03-01T14:17:44;9.75;;;5.22;;
25213;SDS011;13160;51.834;4.706;2023-03-01T14:20:23;7.68;;;4.60;;
25213;SDS011;13160;51.834;4.706;2023-03-01T14:22:55;8.73;;;5.28;;
25213;SDS011;13160;51.834;4.706;2023-03-01T14:25:27;8.30;;;5.07;;
25213;SDS011;13160;51.834;4.706;2023-03-01T14:28:00;8.25;;;5.20;;
25213;SDS011;13160;51.834;4.706;2023-03-01T14:30:41;7.15;;;4.78;;
25213;SDS011;13160;51.834;4.706;2023-03-01T14:33:21;9.18;;;4.95;;
25213;SDS011;13160;51.834;4.706;2023-03-01T14:35:53;8.77;;;5.43;;
25213;SDS011;13160;51.834;4.706;2023-03-01T14:38:29;9.02;;;5.15;;
25213;SDS011;13160;51.834;4.706;2023-03-01T14:41:01;8.80;;;5.20;;
25213;SDS011;13160;51.834;4.706;2023-03-01T14:43:35;9.23;;;4.97;;
25213;SDS011;13160;51.834;4.706;2023-03-01T14:46:17;7.07;;;4.47;;
25213;SDS011;13160;51.834;4.706;2023-03-01T14:48:50;8.55;;;5.38;;
25213;SDS011;13160;51.834;4.706;2023-03-01T14:51:19;9.35;;;5.40;;
25213;SDS011;13160;51.834;4.706;2023-03-01T14:53:48;7.85;;;4.75;;
25213;SDS011;13160;51.834;4.706;2023-03-01T14:56:17;7.85;;;5.30;;
25213;SDS011;13160;51.834;4.706;2023-03-01T14:58:53;8.60;;;5.68;;
25213;SDS011;13160;51.834;4.706;2023-03-01T15:01:26;7.80;;;5.18;;
25213;SDS011;13160;51.834;4.706;2023-03-01T15:03:56;8.30;;;5.00;;
25213;SDS011;13160;51.834;4.706;2023-03-01T15:06:27;8.20;;;5.15;;
25213;SDS011;13160;51.834;4.706;2023-03-01T15:08:56;8.40;;;5.25;;
25213;SDS011;13160;51.834;4.706;2023-03-01T15:11:27;8.75;;;5.15;;
25213;SDS011;13160;51.834;4.706;2023-03-01T15:13:58;8.95;;;5.53;;
25213;SDS011;13160;51.834;4.706;2023-03-01T15:16:29;8.32;;;5.05;;
25213;SDS011;13160;51.834;4.706;2023-03-01T15:19:00;8.05;;;5.20;;
25213;SDS011;13160;51.834;4.706;2023-03-01T15:21:31;9.25;;;5.43;;
25213;SDS011;13160;51.834;4.706;2023-03-01T15:24:03;9.95;;;5.70;;
25213;SDS011;13160;51.834;4.706;2023-03-01T15:26:39;10.32;;;5.28;;
25213;SDS011;13160;51.834;4.706;2023-03-01T15:29:11;9.68;;;5.45;;
25213;SDS011;13160;51.834;4.706;2023-03-01T15:31:54;9.32;;;5.38;;